sensor_id;sensor_type;location;lat;lon;timestamp;pressure;altitude;pressure_sealevel;temperature;humidity
43691;BME280;29293;52.190;21.226;2023-02-14T00:14:08;101850.66;;;3.78;100.00
43691;BME280;29293;52.190;21.226;2023-02-14T00:29:36;101868.86;;;3.79;100.00
43691;BME280;29293;52.190;21.226;2023-02-14T00:44:47;101873.90;;;3.76;100.00
43691;BME280;29293;52.190;21.226;2023-02-14T00:59:57;101874.33;;;3.72;100.00
43691;BME280;29293;52.190;21.226;2023-02-14T01:15:09;101878.14;;;3.65;100.00
43691;BME280;29293;52.190;21.226;2023-02-14T01:30:23;101872.77;;;3.59;100.00
43691;BME280;29293;52.190;21.226;2023-02-14T01:45:33;101876.15;;;3.51;100.00
43691;BME280;29293;52.190;21.226;2023-02-14T02:00:44;101887.02;;;3.43;100.00
43691;BME280;29293;52.190;21.226;2023-02-14T02:16:26;101885.91;;;3.34;100.00
43691;BME280;29293;52.190;21.226;2023-02-14T02:32:02;101886.83;;;3.28;100.00
43691;BME280;29293;52.190;21.226;2023-02-14T02:47:29;101892.96;;;3.22;100.00
43691;BME280;29293;52.190;21.226;2023-02-14T03:02:45;101901.48;;;3.13;100.00
43691;BME280;29293;52.190;21.226;2023-02-14T03:18:31;101905.77;;;3.05;100.00
43691;BME280;29293;52.190;21.226;2023-02-14T03:34:19;101914.64;;;2.97;100.00
43691;BME280;29293;52.190;21.226;2023-02-14T03:49:36;101920.77;;;2.90;100.00
43691;BME280;29293;52.190;21.226;2023-02-14T04:04:51;101924.08;;;2.76;100.00
43691;BME280;29293;52.190;21.226;2023-02-14T04:20:12;101920.55;;;2.62;100.00
43691;BME280;29293;52.190;21.226;2023-02-14T04:35:23;101929.02;;;2.55;100.00
43691;BME280;29293;52.190;21.226;2023-02-14T04:50:39;101937.36;;;2.49;100.00
43691;BME280;29293;52.190;21.226;2023-02-14T05:05:52;101957.09;;;2.45;100.00
43691;BME280;29293;52.190;21.226;2023-02-14T05:21:12;101963.02;;;2.44;100.00
43691;BME280;29293;52.190;21.226;2023-02-14T05:36:23;101972.67;;;2.41;100.00
43691;BME280;29293;52.190;21.226;2023-02-14T05:51:33;101980.13;;;2.39;100.00
43691;BME280;29293;52.190;21.226;2023-02-14T06:06:45;101983.58;;;2.38;100.00
43691;BME280;29293;52.190;21.226;2023-02-14T06:21:55;101994.80;;;2.35;100.00
43691;BME280;29293;52.190;21.226;2023-02-14T06:37:29;102005.92;;;2.38;100.00
43691;BME280;29293;52.190;21.226;2023-02-14T06:52:40;102006.95;;;2.42;100.00
43691;BME280;29293;52.190;21.226;2023-02-14T07:07:50;102008.85;;;2.43;100.00
43691;BME280;29293;52.190;21.226;2023-02-14T07:22:59;102016.70;;;2.56;100.00
43691;BME280;29293;52.190;21.226;2023-02-14T07:38:10;102033.22;;;2.74;100.00
43691;BME280;29293;52.190;21.226;2023-02-14T07:53:33;102052.26;;;2.82;100.00
43691;BME280;29293;52.190;21.226;2023-02-14T08:08:51;102073.46;;;2.90;100.00
43691;BME280;29293;52.190;21.226;2023-02-14T08:24:01;102079.59;;;3.02;100.00
43691;BME280;29293;52.190;21.226;2023-02-14T08:39:11;102081.36;;;3.08;100.00
43691;BME280;29293;52.190;21.226;2023-02-14T08:54:29;102093.31;;;3.18;100.00
43691;BME280;29293;52.190;21.226;2023-02-14T09:09:38;102093.42;;;3.42;100.00
43691;BME280;29293;52.190;21.226;2023-02-14T09:24:52;102086.91;;;3.55;100.00
43691;BME280;29293;52.190;21.226;2023-02-14T09:40:09;102101.92;;;3.49;100.00
43691;BME280;29293;52.190;21.226;2023-02-14T09:55:29;102104.80;;;3.49;100.00
43691;BME280;29293;52.190;21.226;2023-02-14T10:11:05;102104.39;;;3.75;100.00
43691;BME280;29293;52.190;21.226;2023-02-14T10:26:43;102102.44;;;3.74;100.00
43691;BME280;29293;52.190;21.226;2023-02-14T10:42:14;102102.10;;;3.77;100.00
43691;BME280;29293;52.190;21.226;2023-02-14T10:57:31;102109.56;;;3.90;100.00
43691;BME280;29293;52.190;21.226;2023-02-14T11:12:48;102101.53;;;3.87;100.00
43691;BME280;29293;52.190;21.226;2023-02-14T11:28:03;102099.17;;;3.84;100.00
43691;BME280;29293;52.190;21.226;2023-02-14T11:43:38;102093.79;;;3.99;100.00
43691;BME280;29293;52.190;21.226;2023-02-14T11:58:52;102080.60;;;4.16;100.00
43691;BME280;29293;52.190;21.226;2023-02-14T12:14:08;102069.27;;;4.40;100.00
43691;BME280;29293;52.190;21.226;2023-02-14T12:29:34;102061.23;;;4.60;100.00
43691;BME280;29293;52.190;21.226;2023-02-14T12:44:57;102050.25;;;4.63;100.00
43691;BME280;29293;52.190;21.226;2023-02-14T13:00:26;102049.31;;;4.64;100.00
43691;BME280;29293;52.190;21.226;2023-02-14T13:15:45;102051.89;;;4.63;100.00
43691;BME280;29293;52.190;21.226;2023-02-14T13:31:15;102051.98;;;4.70;100.00
43691;BME280;29293;52.190;21.226;2023-02-14T13:47:16;102053.52;;;4.93;100.00
43691;BME280;29293;52.190;21.226;2023-02-14T14:02:43;102052.30;;;4.82;100.00
43691;BME280;29293;52.190;21.226;2023-02-14T14:33:42;102046.74;;;4.85;100.00
43691;BME280;29293;52.190;21.226;2023-02-14T14:48:54;102053.39;;;4.82;100.00
43691;BME280;29293;52.190;21.226;2023-02-14T15:04:17;102058.19;;;4.80;100.00
43691;BME280;29293;52.190;21.226;2023-02-14T15:19:45;102054.61;;;4.68;100.00
43691;BME280;29293;52.190;21.226;2023-02-14T15:35:17;102062.70;;;4.59;100.00
43691;BME280;29293;52.190;21.226;2023-02-14T15:50:56;102058.33;;;4.46;100.00
43691;BME280;29293;52.190;21.226;2023-02-14T16:06:30;102061.92;;;4.34;100.00
43691;BME280;29293;52.190;21.226;2023-02-14T16:21:55;102073.98;;;4.19;100.00
43691;BME280;29293;52.190;21.226;2023-02-14T16:37:20;102087.00;;;3.99;100.00
43691;BME280;29293;52.190;21.226;2023-02-14T16:52:36;102099.21;;;3.69;100.00
43691;BME280;29293;52.190;21.226;2023-02-14T17:07:53;102105.30;;;3.37;100.00
43691;BME280;29293;52.190;21.226;2023-02-14T17:23:05;102118.40;;;3.08;100.00
43691;BME280;29293;52.190;21.226;2023-02-14T17:38:23;102132.52;;;2.73;100.00
43691;BME280;29293;52.190;21.226;2023-02-14T17:53:39;102136.79;;;2.40;100.00
43691;BME280;29293;52.190;21.226;2023-02-14T18:08:53;102134.97;;;2.09;100.00
43691;BME280;29293;52.190;21.226;2023-02-14T18:24:07;102125.66;;;1.82;100.00
43691;BME280;29293;52.190;21.226;2023-02-14T18:39:20;102120.71;;;1.66;100.00
43691;BME280;29293;52.190;21.226;2023-02-14T18:54:33;102119.06;;;1.60;100.00
43691;BME280;29293;52.190;21.226;2023-02-14T19:09:52;102123.83;;;1.39;100.00
43691;BME280;29293;52.190;21.226;2023-02-14T19:25:07;102121.65;;;1.26;100.00
43691;BME280;29293;52.190;21.226;2023-02-14T19:40:19;102127.84;;;1.07;100.00
43691;BME280;29293;52.190;21.226;2023-02-14T19:55:52;102136.30;;;0.94;100.00
43691;BME280;29293;52.190;21.226;2023-02-14T20:11:21;102141.77;;;0.76;100.00
43691;BME280;29293;52.190;21.226;2023-02-14T20:26:34;102148.17;;;0.61;100.00
43691;BME280;29293;52.190;21.226;2023-02-14T20:41:51;102140.19;;;0.48;100.00
43691;BME280;29293;52.190;21.226;2023-02-14T20:57:04;102145.14;;;0.37;100.00
43691;BME280;29293;52.190;21.226;2023-02-14T21:12:21;102144.42;;;0.21;100.00
43691;BME280;29293;52.190;21.226;2023-02-14T21:27:33;102152.11;;;0.04;100.00
43691;BME280;29293;52.190;21.226;2023-02-14T21:42:46;102158.84;;;-0.08;100.00
43691;BME280;29293;52.190;21.226;2023-02-14T21:57:57;102156.95;;;-0.02;100.00
43691;BME280;29293;52.190;21.226;2023-02-14T22:13:11;102151.23;;;0.20;100.00
43691;BME280;29293;52.190;21.226;2023-02-14T22:28:24;102148.30;;;0.58;100.00
43691;BME280;29293;52.190;21.226;2023-02-14T22:43:40;102141.50;;;0.94;100.00
43691;BME280;29293;52.190;21.226;2023-02-14T22:59:04;102139.92;;;1.23;100.00
43691;BME280;29293;52.190;21.226;2023-02-14T23:14:18;102136.67;;;1.36;100.00
43691;BME280;29293;52.190;21.226;2023-02-14T23:29:50;102129.70;;;1.36;100.00
43691;BME280;29293;52.190;21.226;2023-02-14T23:45:07;102127.71;;;1.44;100.00
